Time;durP1;ratioP1;P1;durP2;ratioP2;P2;SDS_P1;SDS_P2;PMS_P1;PMS_P2;Temp;Humidity;BMP_temperature;BMP_pressure;BME280_temperature;BME280_humidity;BME280_pressure;Samples;Min_cycle;Max_cycle;Signal;HPM_P1;HPM_P2
2023/06/26 00:01:31;;;;;;;5.00;4.57;;;;;;;22.87;69.23;101177.75;10252321;29;20043;-70
2023/06/26 00:06:31;;;;;;;8.07;5.70;;;;;;;22.65;72.85;101181.56;10252226;28;20059;-69
2023/06/26 00:11:33;;;;;;;5.28;4.75;;;;;;;22.50;71.62;101178.78;10253010;29;20047;-70
2023/06/26 00:16:33;;;;;;;10.27;5.47;;;;;;;22.32;74.89;101199.38;10251044;29;20031;-69
2023/06/26 00:21:33;;;;;;;8.10;5.15;;;;;;;22.16;78.08;101200.41;10254224;29;20070;-69
2023/06/26 00:26:34;;;;;;;12.50;5.97;;;;;;;22.01;76.46;101199.16;10251774;29;20031;-71
2023/06/26 00:31:38;;;;;;;11.43;5.80;;;;;;;21.88;79.46;101201.56;10252649;29;20054;-70
2023/06/26 00:36:38;;;;;;;13.20;4.15;;;;;;;21.72;79.66;101200.63;10237037;29;20051;-70
2023/06/26 00:41:38;;;;;;;6.32;4.03;;;;;;;21.53;87.86;101209.31;10252592;28;20204;-70
2023/06/26 00:46:39;;;;;;;8.88;4.82;;;;;;;21.46;86.39;101203.19;10252409;28;20536;-71
2023/06/26 00:51:39;;;;;;;10.18;4.43;;;;;;;21.33;93.73;101204.44;10251208;29;20046;-71
2023/06/26 00:56:40;;;;;;;8.88;5.35;;;;;;;21.26;92.47;101214.03;10250405;29;20039;-70
2023/06/26 01:01:40;;;;;;;7.43;5.00;;;;;;;21.21;95.05;101214.78;10253636;29;20035;-70
2023/06/26 01:06:40;;;;;;;17.52;5.75;;;;;;;21.21;93.28;101201.00;10251610;28;20299;-70
2023/06/26 01:11:41;;;;;;;10.45;5.72;;;;;;;21.19;93.32;101216.16;10253866;29;20042;-72
2023/06/26 01:16:41;;;;;;;9.65;4.00;;;;;;;21.16;97.75;101228.53;10251743;29;20435;-70
2023/06/26 01:21:43;;;;;;;15.48;5.28;;;;;;;21.33;95.08;101220.97;10249602;29;20036;-70
2023/06/26 01:26:43;;;;;;;9.57;5.35;;;;;;;21.34;88.65;101205.25;10233661;29;20032;-70
2023/06/26 01:31:46;;;;;;;10.23;5.55;;;;;;;21.02;93.03;101216.25;10250664;29;20039;-70
2023/06/26 01:36:46;;;;;;;20.65;6.22;;;;;;;20.86;94.21;101215.25;10250144;29;20039;-71
2023/06/26 01:41:47;;;;;;;8.52;6.13;;;;;;;20.72;94.93;101217.59;10249614;29;20091;-70
2023/06/26 01:46:50;;;;;;;17.50;5.57;;;;;;;20.70;96.13;101222.50;10234950;29;20098;-70
2023/06/26 01:52:31;;;;;;;11.77;6.03;;;;;;;20.61;97.88;101215.78;10251740;29;20027;-70
2023/06/26 01:57:32;;;;;;;13.45;5.50;;;;;;;20.61;96.07;101213.91;10225647;28;20047;-71
2023/06/26 02:02:33;;;;;;;9.85;5.70;;;;;;;20.65;99.30;101226.03;10250378;28;20110;-70
2023/06/26 02:07:34;;;;;;;12.00;5.45;;;;;;;20.79;96.22;101231.16;10232708;29;20029;-70
2023/06/26 02:12:35;;;;;;;14.60;5.00;;;;;;;20.73;98.00;101224.75;10249237;29;20050;-70
2023/06/26 02:17:36;;;;;;;11.23;4.85;;;;;;;20.62;97.86;101215.53;10255041;28;20066;-70
2023/06/26 02:22:36;;;;;;;8.10;4.18;;;;;;;20.51;97.84;101234.91;10257617;29;20493;-70
2023/06/26 02:27:37;;;;;;;10.15;5.53;;;;;;;20.56;96.39;101238.56;10258275;28;20035;-71
2023/06/26 02:32:37;;;;;;;10.82;5.70;;;;;;;20.35;97.37;101242.94;10259134;28;20070;-69
2023/06/26 02:37:37;;;;;;;21.75;5.75;;;;;;;20.19;96.60;101257.56;10255571;29;20502;-71
2023/06/26 02:42:38;;;;;;;6.63;5.13;;;;;;;19.92;99.85;101249.22;10256866;29;20051;-71
2023/06/26 02:47:39;;;;;;;14.35;5.85;;;;;;;19.80;99.36;101268.53;10239196;29;20039;-71
2023/06/26 02:52:40;;;;;;;12.60;5.10;;;;;;;19.65;100.00;101260.03;10255682;29;20086;-71
2023/06/26 02:57:41;;;;;;;10.38;5.22;;;;;;;19.48;100.00;101271.81;10255775;29;20047;-71
2023/06/26 03:02:42;;;;;;;14.57;5.93;;;;;;;19.50;100.00;101282.56;10238721;29;20126;-71
2023/06/26 03:07:43;;;;;;;16.75;6.13;;;;;;;19.46;99.02;101284.97;10257380;28;20062;-70
2023/06/26 03:12:43;;;;;;;17.80;7.43;;;;;;;19.41;99.53;101295.03;10256065;29;20067;-69
2023/06/26 03:17:43;;;;;;;10.10;4.63;;;;;;;19.37;97.81;101297.44;10256697;29;20054;-70
2023/06/26 03:22:44;;;;;;;16.40;6.22;;;;;;;19.25;97.29;101304.88;10254121;29;20074;-70
2023/06/26 03:27:44;;;;;;;19.83;6.50;;;;;;;19.15;98.28;101301.94;10253314;28;20039;-71
2023/06/26 03:32:45;;;;;;;10.50;5.78;;;;;;;19.02;99.62;101301.16;10255031;29;20035;-71
2023/06/26 03:37:45;;;;;;;21.27;5.10;;;;;;;18.91;100.00;101312.16;10255663;28;20057;-68
2023/06/26 03:42:46;;;;;;;17.13;5.68;;;;;;;18.90;99.05;101307.75;10254041;29;20066;-69
2023/06/26 03:47:49;;;;;;;16.65;5.55;;;;;;;18.82;97.83;101303.47;10252929;29;20063;-70
2023/06/26 03:52:51;;;;;;;11.48;5.32;;;;;;;18.77;100.00;101317.09;10252940;29;20042;-69
2023/06/26 03:57:51;;;;;;;12.25;6.32;;;;;;;18.74;100.00;101329.38;10253910;28;20043;-69
2023/06/26 04:02:52;;;;;;;9.35;4.70;;;;;;;18.78;96.66;101341.53;10254116;29;20384;-68
2023/06/26 04:07:52;;;;;;;27.67;4.50;;;;;;;18.89;96.22;101352.72;10253686;29;20058;-69
2023/06/26 04:12:53;;;;;;;11.40;4.75;;;;;;;19.12;97.79;101369.16;10252077;29;20032;-69
2023/06/26 04:17:53;;;;;;;12.88;4.07;;;;;;;19.38;100.00;101375.16;10253293;29;20043;-68
2023/06/26 04:22:53;;;;;;;9.88;4.90;;;;;;;19.44;97.50;101372.25;10250660;29;20403;-69
2023/06/26 04:27:54;;;;;;;12.80;5.18;;;;;;;19.42;97.49;101371.66;10253604;28;20126;-70
2023/06/26 04:32:58;;;;;;;7.00;2.53;;;;;;;19.47;96.43;101384.69;10252906;28;20047;-68
2023/06/26 04:37:59;;;;;;;14.35;4.47;;;;;;;19.59;98.40;101388.22;10255341;28;20043;-71
2023/06/26 04:42:59;;;;;;;12.52;4.80;;;;;;;20.20;95.32;101389.31;10255268;28;20420;-72
2023/06/26 04:48:00;;;;;;;9.40;4.95;;;;;;;21.06;92.15;101401.91;10253283;29;20090;-72
2023/06/26 04:53:00;;;;;;;3.67;3.20;;;;;;;21.73;93.22;101412.66;10267397;28;20483;-72
2023/06/26 04:58:00;;;;;;;5.82;4.13;;;;;;;21.89;92.51;101416.41;10252234;29;20042;-71
2023/06/26 05:03:01;;;;;;;4.35;3.50;;;;;;;22.73;87.96;101420.41;10255950;28;20138;-65
2023/06/26 05:08:14;;;;;;;3.97;3.17;;;;;;;22.84;86.30;101427.66;10255524;29;20050;-66
2023/06/26 05:13:17;;;;;;;5.65;3.28;;;;;;;21.91;87.67;101430.72;10267833;28;20432;-65
2023/06/26 05:18:17;;;;;;;6.93;3.22;;;;;;;21.21;87.97;101445.31;10234299;29;20443;-62
2023/06/26 05:23:18;;;;;;;2.50;2.33;;;;;;;20.86;86.12;101444.56;10251502;28;20032;-70
2023/06/26 05:28:19;;;;;;;1.85;1.55;;;;;;;20.74;86.44;101459.50;10249081;29;20038;-69
2023/06/26 05:33:19;;;;;;;5.65;2.67;;;;;;;20.48;86.04;101461.81;10250395;28;20378;-69
2023/06/26 05:38:20;;;;;;;11.63;1.80;;;;;;;20.53;84.57;101475.72;10233078;29;20030;-70
2023/06/26 05:43:21;;;;;;;7.68;2.55;;;;;;;21.02;81.55;101495.19;10249936;29;20059;-70
2023/06/26 05:48:21;;;;;;;2.03;1.48;;;;;;;21.68;78.56;101498.03;10250604;29;20031;-70
2023/06/26 05:53:21;;;;;;;4.63;1.75;;;;;;;;;;10256682;28;20088;-70
2023/06/26 05:58:23;;;;;;;10.80;1.95;;;;;;;21.31;76.83;101487.63;10257511;29;20166;-70
2023/06/26 06:03:24;;;;;;;1.55;1.45;;;;;;;21.05;75.00;101494.66;10240421;29;20031;-69
2023/06/26 06:08:24;;;;;;;5.28;2.40;;;;;;;22.85;67.95;101506.66;10256578;29;20035;-69
2023/06/26 06:13:25;;;;;;;5.10;2.35;;;;;;;22.20;67.75;101508.56;10256019;29;20046;-70
2023/06/26 06:18:25;;;;;;;1.65;1.58;;;;;;;21.73;70.33;101525.66;10256359;29;20080;-70
2023/06/26 06:23:27;;;;;;;5.60;2.17;;;;;;;22.23;69.79;101527.34;10240334;29;20090;-69
2023/06/26 06:28:27;;;;;;;5.22;2.67;;;;;;;23.54;64.59;101526.97;10256982;29;20130;-69
2023/06/26 06:33:28;;;;;;;3.63;2.15;;;;;;;24.45;59.53;101533.97;10257258;29;20546;-69
2023/06/26 06:38:28;;;;;;;2.53;1.92;;;;;;;23.36;61.87;101545.69;10257743;29;20035;-69
2023/06/26 06:43:28;;;;;;;12.60;2.97;;;;;;;22.89;62.42;101549.22;10255591;29;20146;-69
2023/06/26 06:48:29;;;;;;;3.97;2.17;;;;;;;23.02;61.70;101567.28;10254820;29;20387;-69
2023/06/26 06:53:31;;;;;;;3.13;2.13;;;;;;;22.32;62.96;101580.16;10253906;29;20039;-68
2023/06/26 06:58:33;;;;;;;6.97;2.53;;;;;;;24.18;58.72;101586.72;10255062;29;20427;-69
2023/06/26 07:03:35;;;;;;;2.80;1.73;;;;;;;25.27;54.84;101590.19;10254631;28;20106;-70
2023/06/26 07:08:35;;;;;;;2.45;2.25;;;;;;;25.56;53.04;101590.44;10254819;29;20400;-69
2023/06/26 07:13:37;;;;;;;3.25;2.15;;;;;;;26.02;50.88;101587.50;10254594;29;20039;-70
2023/06/26 07:18:38;;;;;;;3.70;2.58;;;;;;;26.20;49.99;101600.75;10253654;29;20035;-69
2023/06/26 07:23:38;;;;;;;3.40;2.25;;;;;;;26.61;49.54;101600.53;10254789;28;20046;-70
2023/06/26 07:28:39;;;;;;;2.40;1.98;;;;;;;26.65;47.80;101609.94;10252904;29;20038;-69
2023/06/26 07:33:40;;;;;;;2.30;1.55;;;;;;;26.82;48.12;101614.25;10254914;28;20093;-69
2023/06/26 07:38:40;;;;;;;3.67;1.75;;;;;;;26.93;45.93;101629.75;10254635;29;20043;-70
2023/06/26 07:43:41;;;;;;;9.15;2.63;;;;;;;27.02;46.21;101622.41;10219045;29;20514;-68
2023/06/26 07:48:41;;;;;;;3.00;2.00;;;;;;;27.50;47.06;101635.63;10253839;29;20066;-69
2023/06/26 07:53:41;;;;;;;2.88;1.90;;;;;;;27.96;45.50;101641.56;10254181;28;20035;-69
2023/06/26 07:58:42;;;;;;;2.28;2.10;;;;;;;27.97;43.89;101648.78;10268530;28;20043;-69
2023/06/26 08:03:42;;;;;;;2.83;1.90;;;;;;;27.93;43.93;101650.50;10252571;28;20553;-69
2023/06/26 08:08:43;;;;;;;4.88;1.95;;;;;;;28.05;44.33;101653.69;10253052;29;20484;-70
2023/06/26 08:13:43;;;;;;;1.92;1.83;;;;;;;28.27;43.44;101655.06;10252959;28;20138;-68
2023/06/26 08:18:43;;;;;;;3.17;2.17;;;;;;;28.39;43.00;101658.25;10252193;29;20067;-70
2023/06/26 08:23:44;;;;;;;4.93;2.20;;;;;;;28.48;43.07;101648.13;10235209;29;20035;-69
2023/06/26 08:28:44;;;;;;;3.22;1.70;;;;;;;28.78;42.77;101662.78;10252910;29;20035;-69
2023/06/26 08:33:45;;;;;;;2.65;2.45;;;;;;;28.90;42.01;101665.91;10250451;29;20459;-70
2023/06/26 08:38:45;;;;;;;4.22;2.28;;;;;;;28.68;41.68;101683.22;10251424;29;20036;-69
2023/06/26 08:43:46;;;;;;;4.43;2.63;;;;;;;28.94;41.84;101692.06;10251619;28;20162;-70
2023/06/26 08:48:57;;;;;;;2.03;1.92;;;;;;;28.49;41.63;101683.25;10252776;28;20070;-70
2023/06/26 08:53:58;;;;;;;4.95;1.95;;;;;;;28.89;41.14;101683.78;10234555;29;20039;-70
2023/06/26 08:58:59;;;;;;;5.10;2.60;;;;;;;29.17;41.35;101692.28;10250915;29;20062;-70
2023/06/26 09:03:59;;;;;;;2.40;2.20;;;;;;;29.59;39.94;101701.63;10233971;29;20058;-70
2023/06/26 09:09:00;;;;;;;7.10;2.60;;;;;;;29.24;41.14;101700.28;10251162;29;20142;-69
2023/06/26 09:14:00;;;;;;;4.75;3.05;;;;;;;28.90;41.09;101713.28;10250015;29;20435;-70
2023/06/26 09:19:00;;;;;;;2.92;2.67;;;;;;;29.02;41.61;101714.84;10249181;29;20037;-69
2023/06/26 09:24:01;;;;;;;4.88;3.05;;;;;;;29.04;39.91;101712.59;10250914;28;20122;-70
2023/06/26 09:29:01;;;;;;;5.38;2.88;;;;;;;29.12;40.23;101728.63;10241615;29;20051;-70
2023/06/26 09:34:05;;;;;;;3.80;1.92;;;;;;;29.00;41.07;101728.22;10241733;29;20031;-70
2023/06/26 09:39:10;;;;;;;3.72;2.33;;;;;;;29.27;40.04;101735.94;10257459;29;20381;-70
2023/06/26 09:44:13;;;;;;;4.22;2.25;;;;;;;29.37;40.24;101747.75;10241801;29;20055;-70
2023/06/26 09:49:13;;;;;;;3.25;1.63;;;;;;;29.49;39.02;101754.81;10259303;28;20404;-69
2023/06/26 09:54:16;;;;;;;3.33;2.00;;;;;;;29.38;39.76;101763.34;10242477;29;20028;-71
2023/06/26 09:59:16;;;;;;;2.15;2.05;;;;;;;29.62;38.47;101763.25;10241941;29;20518;-70
2023/06/26 10:04:17;;;;;;;4.50;2.08;;;;;;;29.29;38.92;101764.34;10245051;29;20086;-70
2023/06/26 10:09:18;;;;;;;1.90;1.80;;;;;;;29.77;39.12;101775.28;10257986;29;20118;-70
2023/06/26 10:14:19;;;;;;;8.88;2.67;;;;;;;29.67;38.46;101779.06;10257976;28;20039;-70
2023/06/26 10:19:25;;;;;;;4.18;2.05;;;;;;;29.94;39.21;101769.13;10240785;29;20518;-72
2023/06/26 10:24:26;;;;;;;;;;;;;;;30.29;37.36;101776.03;10256969;29;20183;-70
2023/06/26 10:29:26;;;;;;;2.45;1.50;;;;;;;30.21;37.72;101785.94;10256745;29;19926;-70
2023/06/26 10:34:27;;;;;;;1.63;1.55;;;;;;;30.00;37.53;101795.84;10255455;29;20165;-70
2023/06/26 10:39:27;;;;;;;1.92;1.83;;;;;;;28.41;38.50;101800.09;10255572;28;20043;-68
2023/06/26 10:44:27;;;;;;;9.68;2.13;;;;;;;28.68;37.84;101805.88;10256306;28;20246;-70
2023/06/26 10:49:29;;;;;;;4.72;1.80;;;;;;;29.35;37.40;101797.44;10239393;29;20126;-70
2023/06/26 10:54:30;;;;;;;3.38;2.35;;;;;;;28.87;37.75;101814.25;10257219;28;20451;-70
2023/06/26 10:59:31;;;;;;;7.78;1.77;;;;;;;29.29;37.93;101820.13;10253485;29;20037;-69
2023/06/26 11:04:38;;;;;;;6.32;1.20;;;;;;;28.71;38.25;101823.97;10238257;29;20042;-70
2023/06/26 11:09:55;;;;;;;3.08;1.73;;;;;;;28.41;37.98;101833.53;10254090;29;20439;-70
2023/06/26 11:14:55;;;;;;;2.13;1.98;;;;;;;27.78;39.56;101831.59;10255318;29;20518;-70
2023/06/26 11:19:56;;;;;;;14.52;2.78;;;;;;;27.77;38.85;101849.41;10255142;29;20047;-69
2023/06/26 11:24:59;;;;;;;1.92;1.83;;;;;;;28.26;38.55;101848.41;10253479;29;20078;-70
2023/06/26 11:30:00;;;;;;;1.83;1.73;;;;;;;29.43;37.77;101857.31;10253180;29;20446;-70
2023/06/26 11:35:01;;;;;;;1.60;1.55;;;;;;;30.16;36.25;101855.88;10254547;28;20035;-70
2023/06/26 11:40:16;;;;;;;1.27;1.25;;;;;;;29.42;35.24;101864.88;10253753;29;20058;-70
2023/06/26 11:45:17;;;;;;;2.35;2.08;;;;;;;29.66;36.78;101858.38;10254109;28;20042;-71
2023/06/26 11:50:18;;;;;;;3.13;2.00;;;;;;;29.77;35.91;101876.66;10254148;28;20061;-70
2023/06/26 11:55:18;;;;;;;3.92;1.20;;;;;;;30.04;36.32;101875.91;10252867;29;20122;-71
2023/06/26 12:00:19;;;;;;;1.73;1.45;;;;;;;28.74;35.92;101884.69;10252412;29;20073;-70
2023/06/26 12:05:19;;;;;;;8.32;2.53;;;;;;;27.62;38.53;101891.22;10238027;29;20050;-71
2023/06/26 12:10:20;;;;;;;3.95;2.20;;;;;;;27.99;37.88;101897.09;10252095;29;20442;-71
2023/06/26 12:15:20;;;;;;;4.68;2.17;;;;;;;28.14;38.26;101912.00;10236065;29;20071;-71
2023/06/26 12:20:21;;;;;;;1.63;1.52;;;;;;;28.38;37.10;101909.31;10251852;29;20435;-70
2023/06/26 12:25:25;;;;;;;3.05;1.95;;;;;;;28.47;37.60;101902.81;10253402;28;20031;-70
2023/06/26 12:30:25;;;;;;;2.40;1.38;;;;;;;28.03;38.14;101908.50;10251835;29;20038;-70
2023/06/26 12:35:25;;;;;;;7.55;1.40;;;;;;;27.69;38.38;101916.78;10251626;29;20457;-70
2023/06/26 12:40:26;;;;;;;3.63;1.88;;;;;;;27.01;38.91;101912.66;10251524;29;20070;-72
2023/06/26 12:45:26;;;;;;;2.65;1.80;;;;;;;27.57;39.08;101917.97;10250770;29;20039;-70
2023/06/26 12:50:27;;;;;;;3.80;2.40;;;;;;;27.18;38.91;101917.06;10252473;29;20035;-70
2023/06/26 12:55:27;;;;;;;3.70;2.25;;;;;;;27.49;39.67;101915.78;10251757;29;20039;-70
2023/06/26 13:00:27;;;;;;;1.63;1.52;;;;;;;27.45;37.96;101928.63;10251226;28;20039;-69
2023/06/26 13:05:28;;;;;;;2.15;1.83;;;;;;;26.95;39.42;101927.69;10250945;29;20035;-70
2023/06/26 13:10:28;;;;;;;3.88;1.60;;;;;;;26.64;40.02;101927.78;10266713;28;20047;-70
2023/06/26 13:15:29;;;;;;;1.40;1.20;;;;;;;27.80;38.75;101912.84;10252407;28;20028;-70
2023/06/26 13:20:29;;;;;;;3.58;1.80;;;;;;;28.25;38.54;101903.28;10251184;29;20469;-71
2023/06/26 13:25:30;;;;;;;1.75;1.65;;;;;;;28.45;38.56;101907.03;10251469;29;20090;-71
2023/06/26 13:30:30;;;;;;;1.48;1.42;;;;;;;28.64;38.09;101893.19;10235356;29;20039;-70
2023/06/26 13:35:31;;;;;;;4.30;1.63;;;;;;;29.31;37.54;101902.41;10251838;28;20035;-71
2023/06/26 13:40:31;;;;;;;2.30;1.83;;;;;;;29.28;37.08;101913.34;10250952;29;20058;-71
2023/06/26 13:45:32;;;;;;;3.30;1.60;;;;;;;28.63;38.10;101934.16;10249023;29;20035;-70
2023/06/26 13:50:32;;;;;;;1.65;1.42;;;;;;;28.45;38.69;101938.50;10249008;29;20039;-69
2023/06/26 13:55:33;;;;;;;11.50;2.20;;;;;;;28.20;37.97;101933.13;10250389;29;20046;-70
2023/06/26 14:00:34;;;;;;;4.10;1.88;;;;;;;28.08;38.10;101925.16;10233802;29;20064;-70
2023/06/26 14:05:34;;;;;;;2.58;1.52;;;;;;;28.21;38.14;101918.09;10250274;28;20118;-71
2023/06/26 14:10:36;;;;;;;2.10;1.92;;;;;;;28.66;37.41;101929.94;10249220;28;20098;-71
2023/06/26 14:15:36;;;;;;;3.00;1.27;;;;;;;28.75;37.32;101917.03;10257517;29;20043;-71
2023/06/26 14:20:37;;;;;;;2.60;1.88;;;;;;;28.55;37.78;101931.16;10257694;29;20035;-71
2023/06/26 14:25:37;;;;;;;1.63;1.60;;;;;;;28.56;37.23;101928.09;10256184;29;20035;-70
2023/06/26 14:30:37;;;;;;;1.60;1.50;;;;;;;28.63;36.91;101923.00;10257752;28;20130;-70
2023/06/26 14:35:38;;;;;;;1.90;1.80;;;;;;;28.19;37.91;101920.34;10257010;29;20035;-70
2023/06/26 14:40:38;;;;;;;5.03;1.77;;;;;;;28.14;38.21;101925.94;10239836;29;20062;-70
2023/06/26 14:45:39;;;;;;;2.05;1.42;;;;;;;28.05;38.39;101921.00;10256792;29;20364;-70
2023/06/26 14:50:40;;;;;;;1.95;1.75;;;;;;;27.70;38.94;101922.06;10255854;29;20336;-70
2023/06/26 14:55:40;;;;;;;1.88;1.75;;;;;;;27.65;39.07;101921.25;10254985;29;20047;-71
2023/06/26 15:00:41;;;;;;;4.85;1.60;;;;;;;27.45;39.36;101925.00;10257269;29;20067;-69
2023/06/26 15:05:41;;;;;;;3.00;1.77;;;;;;;27.26;39.12;101933.16;10256161;28;20119;-71
2023/06/26 15:10:42;;;;;;;2.25;2.05;;;;;;;26.47;40.38;101941.09;10254077;29;20062;-69
2023/06/26 15:15:42;;;;;;;4.28;1.83;;;;;;;25.86;41.13;101930.81;10258135;28;20040;-70
2023/06/26 15:20:42;;;;;;;2.45;1.58;;;;;;;25.90;41.06;101925.53;10257154;28;20149;-70
2023/06/26 15:25:43;;;;;;;2.80;1.80;;;;;;;25.47;41.80;101935.97;10254749;28;20046;-70
2023/06/26 15:30:43;;;;;;;2.67;2.47;;;;;;;25.66;41.88;101937.13;10239332;29;20436;-70
2023/06/26 15:35:44;;;;;;;1.25;1.23;;;;;;;25.70;41.70;101932.69;10270570;28;20035;-71
2023/06/26 15:40:44;;;;;;;2.33;1.98;;;;;;;25.77;42.26;101931.59;10237262;29;20205;-69
2023/06/26 15:45:44;;;;;;;4.00;2.53;;;;;;;25.71;42.02;101925.22;10255325;29;20027;-69
2023/06/26 15:50:45;;;;;;;1.83;1.73;;;;;;;25.57;42.29;101927.69;10254673;28;20356;-70
2023/06/26 15:55:47;;;;;;;1.92;1.83;;;;;;;25.46;42.33;101926.84;10255337;28;20118;-69
2023/06/26 16:00:47;;;;;;;2.22;2.13;;;;;;;25.44;42.23;101929.03;10254029;28;20062;-70
2023/06/26 16:05:47;;;;;;;3.83;2.53;;;;;;;25.09;42.80;101918.63;10251640;29;20042;-70
2023/06/26 16:10:48;;;;;;;1.58;1.48;;;;;;;25.01;43.08;101933.81;10236864;29;20371;-70
2023/06/26 16:15:48;;;;;;;8.50;2.00;;;;;;;24.34;43.51;101931.69;10251649;29;20428;-70
2023/06/26 16:20:49;;;;;;;1.35;1.33;;;;;;;24.40;43.67;101941.69;10251368;29;20043;-69
2023/06/26 16:25:49;;;;;;;6.88;2.05;;;;;;;23.94;43.63;101924.72;10251375;29;20039;-70
2023/06/26 16:30:50;;;;;;;8.52;2.70;;;;;;;23.36;44.15;101929.06;10251326;29;20118;-72
2023/06/26 16:35:50;;;;;;;2.20;1.65;;;;;;;22.84;44.91;101921.97;10234482;28;20039;-70
2023/06/26 16:40:51;;;;;;;4.40;1.45;;;;;;;22.64;44.61;101927.22;10252578;28;20484;-70
2023/06/26 16:45:51;;;;;;;5.20;2.05;;;;;;;22.38;45.15;101921.31;10251972;28;20043;-71
2023/06/26 16:50:52;;;;;;;2.00;1.63;;;;;;;22.18;46.53;101918.22;10250739;29;20083;-70
2023/06/26 16:55:52;;;;;;;1.63;1.48;;;;;;;22.02;47.05;101923.44;10251681;28;20054;-70
2023/06/26 17:00:53;;;;;;;6.45;2.13;;;;;;;21.91;47.26;101921.59;10234349;29;20042;-71
2023/06/26 17:05:53;;;;;;;2.15;2.05;;;;;;;21.79;46.62;101916.16;10250916;29;20515;-69
2023/06/26 17:10:53;;;;;;;7.47;2.00;;;;;;;21.69;47.80;101926.97;10250399;29;20371;-70
2023/06/26 17:15:54;;;;;;;1.67;1.58;;;;;;;21.53;47.05;101916.75;10250079;29;20059;-70
2023/06/26 17:20:55;;;;;;;4.20;2.38;;;;;;;21.49;47.50;101913.63;10249830;29;20094;-69
2023/06/26 17:25:57;;;;;;;2.95;2.70;;;;;;;21.55;47.19;101918.16;10234041;29;20046;-69
2023/06/26 17:30:57;;;;;;;3.05;1.45;;;;;;;21.60;47.36;101914.66;10249220;29;20457;-69
2023/06/26 17:35:58;;;;;;;6.88;1.98;;;;;;;21.61;47.78;101919.13;10250602;29;20042;-69
2023/06/26 17:40:58;;;;;;;4.00;2.25;;;;;;;21.72;47.39;101920.13;10250278;29;20101;-70
2023/06/26 17:45:58;;;;;;;1.52;1.38;;;;;;;21.86;47.22;101923.41;10251693;28;20043;-70
2023/06/26 17:50:59;;;;;;;8.18;2.83;;;;;;;21.81;49.29;101929.69;10256715;29;20529;-69
2023/06/26 17:55:59;;;;;;;3.08;1.60;;;;;;;21.77;47.82;101931.28;10259039;29;20643;-69
2023/06/26 18:01:00;;;;;;;6.38;1.73;;;;;;;21.70;48.08;101938.88;10258089;29;20356;-70
2023/06/26 18:06:00;;;;;;;2.88;1.80;;;;;;;21.44;49.85;101930.09;10258826;29;20039;-70
2023/06/26 18:11:00;;;;;;;2.17;1.63;;;;;;;21.28;48.76;101950.09;10240280;29;20028;-69
2023/06/26 18:16:01;;;;;;;4.22;1.65;;;;;;;21.13;49.46;101937.69;10257115;28;20043;-69
2023/06/26 18:21:01;;;;;;;1.98;1.60;;;;;;;21.12;48.66;101947.03;10241054;29;20058;-70
2023/06/26 18:26:02;;;;;;;14.93;2.88;;;;;;;21.04;49.65;101943.81;10257567;28;20106;-69
2023/06/26 18:31:03;;;;;;;2.50;1.88;;;;;;;20.95;49.31;101935.09;10256571;29;20086;-69
2023/06/26 18:36:08;;;;;;;4.55;2.35;;;;;;;20.88;50.08;101942.63;10257108;28;20035;-70
2023/06/26 18:41:09;;;;;;;2.78;1.13;;;;;;;20.79;51.49;101946.84;10240082;29;20059;-64
2023/06/26 18:46:10;;;;;;;5.40;1.80;;;;;;;20.62;52.38;101941.22;10240475;29;20139;-64
2023/06/26 18:51:11;;;;;;;2.33;1.85;;;;;;;20.51;52.31;101944.75;10257124;28;20136;-66
2023/06/26 18:56:11;;;;;;;1.40;1.35;;;;;;;20.46;51.43;101945.50;10254757;29;20031;-64
2023/06/26 19:01:12;;;;;;;1.95;1.85;;;;;;;20.35;51.66;101935.28;10256355;28;20039;-64
2023/06/26 19:06:13;;;;;;;6.80;1.55;;;;;;;20.25;52.64;101946.06;10255189;29;20042;-65
2023/06/26 19:11:15;;;;;;;15.13;2.72;;;;;;;20.17;52.35;101950.81;10254500;29;20443;-65
2023/06/26 19:16:15;;;;;;;3.65;1.88;;;;;;;20.07;54.35;101955.22;10254496;29;20043;-66
2023/06/26 19:21:16;;;;;;;7.22;2.20;;;;;;;19.91;55.95;101957.59;10254896;29;20051;-64
2023/06/26 19:26:16;;;;;;;7.53;2.67;;;;;;;19.84;55.07;101958.72;10253789;29;20039;-64
2023/06/26 19:31:17;;;;;;;1.60;1.35;;;;;;;19.77;54.41;101964.31;10256240;29;20094;-65
2023/06/26 19:36:17;;;;;;;3.05;1.42;;;;;;;19.63;57.36;101960.91;10253812;29;20039;-67
2023/06/26 19:41:18;;;;;;;5.53;1.95;;;;;;;19.53;59.26;101960.63;10255089;28;20239;-64
2023/06/26 19:46:18;;;;;;;9.20;3.13;;;;;;;19.41;57.37;101954.22;10270908;28;20050;-64
2023/06/26 19:51:19;;;;;;;3.53;2.97;;;;;;;19.33;61.32;101957.25;10253053;29;20046;-65
2023/06/26 19:56:19;;;;;;;7.65;2.22;;;;;;;19.36;59.70;101954.91;10220885;29;20443;-64
2023/06/26 20:01:20;;;;;;;2.83;1.75;;;;;;;19.41;59.19;101965.22;10252967;29;20067;-66
2023/06/26 20:06:21;;;;;;;3.70;2.53;;;;;;;19.49;60.67;101965.72;10236991;29;20078;-67
2023/06/26 20:11:21;;;;;;;4.40;2.72;;;;;;;19.50;62.07;101961.09;10255239;28;20186;-65
2023/06/26 20:16:22;;;;;;;4.35;2.78;;;;;;;19.47;61.73;101973.38;10253201;29;20090;-65
2023/06/26 20:21:22;;;;;;;2.45;2.22;;;;;;;19.40;61.27;101975.34;10252816;29;20435;-64
2023/06/26 20:26:22;;;;;;;2.35;1.80;;;;;;;19.33;61.83;101976.50;10252387;29;20114;-64
2023/06/26 20:31:23;;;;;;;3.03;2.00;;;;;;;19.31;61.17;101974.00;10253345;28;20402;-66
2023/06/26 20:36:23;;;;;;;4.53;1.50;;;;;;;19.32;59.98;101978.41;10253628;28;20042;-63
2023/06/26 20:41:24;;;;;;;4.35;1.95;;;;;;;19.37;58.58;101978.56;10267376;28;20051;-63
2023/06/26 20:46:31;;;;;;;6.80;2.55;;;;;;;19.38;59.76;101982.97;10250842;29;20047;-64
2023/06/26 20:51:31;;;;;;;11.63;2.22;;;;;;;19.33;59.34;101981.97;10251011;29;20038;-62
2023/06/26 20:56:32;;;;;;;3.78;2.67;;;;;;;19.29;60.60;101960.47;10251975;28;20387;-63
2023/06/26 21:01:32;;;;;;;6.93;2.67;;;;;;;19.40;60.63;101974.50;10250716;29;20376;-64
2023/06/26 21:06:33;;;;;;;3.42;2.35;;;;;;;19.42;60.17;101975.94;10252968;28;20042;-66
2023/06/26 21:11:33;;;;;;;3.25;2.10;;;;;;;19.39;61.53;101978.31;10191414;28;20154;-70
2023/06/26 21:16:33;;;;;;;5.85;2.33;;;;;;;19.23;63.15;101982.53;10254887;28;20102;-70
2023/06/26 21:21:34;;;;;;;11.40;3.08;;;;;;;18.99;64.43;101982.38;10250914;28;20043;-71
2023/06/26 21:26:37;;;;;;;1.80;1.70;;;;;;;18.92;62.58;101988.97;10250704;28;20039;-70
2023/06/26 21:31:37;;;;;;;13.07;3.08;;;;;;;18.87;62.61;101981.44;10249485;29;20031;-69
2023/06/26 21:36:38;;;;;;;8.88;3.47;;;;;;;18.71;62.34;101973.75;10251880;28;20504;-70
2023/06/26 21:41:38;;;;;;;7.10;2.72;;;;;;;18.52;62.71;101961.91;10251038;29;20085;-70
2023/06/26 21:46:39;;;;;;;6.28;2.42;;;;;;;18.36;63.09;101966.88;10250119;28;20071;-70
2023/06/26 21:51:39;;;;;;;13.18;3.90;;;;;;;18.27;64.44;101981.91;10250471;28;20146;-70
2023/06/26 21:56:40;;;;;;;11.00;3.28;;;;;;;18.25;67.53;101967.63;10250584;28;20035;-69
2023/06/26 22:01:40;;;;;;;10.10;3.97;;;;;;;18.22;70.61;101970.78;10250427;29;20058;-69
2023/06/26 22:06:40;;;;;;;11.25;3.42;;;;;;;18.22;68.34;101975.41;10252174;29;20070;-70
2023/06/26 22:11:41;;;;;;;6.53;2.92;;;;;;;18.22;70.28;101959.81;10250058;29;20043;-70
2023/06/26 22:16:41;;;;;;;6.10;3.47;;;;;;;18.26;71.71;101965.69;10265727;28;20062;-68
2023/06/26 22:21:42;;;;;;;14.68;4.47;;;;;;;18.27;71.27;101953.66;10234300;29;20055;-69
2023/06/26 22:26:43;;;;;;;13.07;3.13;;;;;;;18.27;69.95;101959.97;10251882;29;20035;-69
2023/06/26 22:31:43;;;;;;;5.85;3.30;;;;;;;18.27;72.61;101957.25;10250601;28;20050;-70
2023/06/26 22:36:44;;;;;;;5.07;2.55;;;;;;;18.38;73.08;101957.56;10255876;29;20039;-70
2023/06/26 22:41:45;;;;;;;15.52;4.30;;;;;;;18.53;73.34;101947.09;10256665;29;20062;-70
2023/06/26 22:46:45;;;;;;;7.70;3.72;;;;;;;18.66;71.97;101946.16;10256297;29;20050;-70
2023/06/26 22:51:46;;;;;;;5.15;3.30;;;;;;;18.69;71.73;101951.19;10256411;29;20122;-71
2023/06/26 22:56:46;;;;;;;4.50;3.15;;;;;;;18.57;73.69;101938.22;10254801;29;20035;-69
2023/06/26 23:01:47;;;;;;;12.70;3.80;;;;;;;18.54;72.43;101940.56;10256444;29;20035;-71